Time;durP1;ratioP1;P1;durP2;ratioP2;P2;SDS_P1;SDS_P2;PMS_P1;PMS_P2;Temp;Humidity;BMP_temperature;BMP_pressure;BME280_temperature;BME280_humidity;BME280_pressure;Samples;Min_cycle;Max_cycle;Signal;HPM_P1;HPM_P2
2023/12/16 00:01:21;;;;;;;3.30;2.10;;;;;;;;;;5030488;28;20403;-86
2023/12/16 00:03:46;;;;;;;3.35;2.15;;;;;;;;;;5030264;28;20073;-85
2023/12/16 00:06:12;;;;;;;3.47;2.40;;;;;;;;;;5031566;28;20044;-84
2023/12/16 00:08:37;;;;;;;4.25;2.13;;;;;;;;;;5030973;28;20038;-84
2023/12/16 00:11:03;;;;;;;3.13;2.10;;;;;;;;;;5031636;28;20040;-85
2023/12/16 00:13:29;;;;;;;4.03;2.40;;;;;;;;;;5028975;28;20411;-85
2023/12/16 00:15:54;;;;;;;4.05;2.45;;;;;;;;;;5031946;28;20124;-85
2023/12/16 00:18:20;;;;;;;3.75;2.13;;;;;;;;;;5007310;28;20033;-85
2023/12/16 00:20:46;;;;;;;4.13;2.33;;;;;;;;;;5029127;28;20021;-84
2023/12/16 00:23:11;;;;;;;3.60;2.15;;;;;;;;;;5026753;28;20038;-85
2023/12/16 00:25:37;;;;;;;4.35;2.40;;;;;;;;;;5009882;28;20132;-84
2023/12/16 00:28:02;;;;;;;3.60;2.15;;;;;;;;;;5029923;28;20117;-84
2023/12/16 00:30:28;;;;;;;3.38;2.03;;;;;;;;;;5031929;28;20056;-85
2023/12/16 00:32:53;;;;;;;2.97;2.10;;;;;;;;;;5034239;28;20029;-85
2023/12/16 00:35:19;;;;;;;4.45;2.35;;;;;;;;;;5035898;28;20207;-86
2023/12/16 00:37:44;;;;;;;4.25;2.70;;;;;;;;;;5036404;28;20041;-86
2023/12/16 00:40:10;;;;;;;3.78;2.50;;;;;;;;;;5037569;28;20120;-86
2023/12/16 00:42:36;;;;;;;5.05;3.10;;;;;;;;;;5035507;28;20056;-85
2023/12/16 00:45:01;;;;;;;5.38;3.35;;;;;;;;;;5034342;28;20041;-85
2023/12/16 00:47:28;;;;;;;6.03;3.50;;;;;;;;;;5031296;28;20402;-84
2023/12/16 00:49:54;;;;;;;5.88;3.63;;;;;;;;;;5027702;28;20044;-84
2023/12/16 00:52:19;;;;;;;5.88;3.95;;;;;;;;;;5030286;28;20021;-84
2023/12/16 00:54:45;;;;;;;6.03;3.60;;;;;;;;;;5035005;28;20029;-84
2023/12/16 00:57:10;;;;;;;5.28;3.25;;;;;;;;;;5018495;28;20029;-85
2023/12/16 00:59:36;;;;;;;4.80;3.10;;;;;;;;;;5036556;28;20041;-84
2023/12/16 01:02:02;;;;;;;5.55;3.70;;;;;;;;;;5033290;28;20030;-83
2023/12/16 01:04:28;;;;;;;5.07;3.50;;;;;;;;;;5027455;28;20033;-84
2023/12/16 01:06:53;;;;;;;4.18;2.90;;;;;;;;;;5031587;28;20509;-85
2023/12/16 01:09:18;;;;;;;5.00;2.72;;;;;;;;;;5028418;28;20041;-84
2023/12/16 01:11:45;;;;;;;5.28;3.50;;;;;;;;;;5025250;28;20091;-84
2023/12/16 01:14:10;;;;;;;4.85;2.97;;;;;;;;;;5028042;28;20124;-84
2023/12/16 01:16:36;;;;;;;5.47;2.75;;;;;;;;;;5031866;28;20559;-84
2023/12/16 01:19:01;;;;;;;4.20;2.50;;;;;;;;;;5028874;28;20034;-84
2023/12/16 01:21:27;;;;;;;4.47;2.45;;;;;;;;;;5025732;28;20038;-83
2023/12/16 01:23:52;;;;;;;4.57;3.13;;;;;;;;;;5026371;28;20036;-84
2023/12/16 01:26:18;;;;;;;4.95;3.28;;;;;;;;;;5023118;28;20496;-84
2023/12/16 01:28:43;;;;;;;5.30;3.30;;;;;;;;;;5010207;28;20040;-86
2023/12/16 01:31:09;;;;;;;4.82;3.10;;;;;;;;;;5026409;28;20045;-84
2023/12/16 01:33:35;;;;;;;5.45;3.65;;;;;;;;;;5031254;28;20069;-84
2023/12/16 01:36:00;;;;;;;4.75;3.20;;;;;;;;;;5029172;28;20041;-84
2023/12/16 01:38:26;;;;;;;5.20;3.50;;;;;;;;;;5007852;28;20064;-85
2023/12/16 01:40:51;;;;;;;5.78;3.30;;;;;;;;;;5031790;28;20041;-84
2023/12/16 01:43:17;;;;;;;6.43;3.92;;;;;;;;;;5027611;28;20041;-84
2023/12/16 01:45:43;;;;;;;4.28;2.92;;;;;;;;;;5024675;28;20061;-86
2023/12/16 01:48:10;;;;;;;5.00;2.63;;;;;;;;;;5025444;28;20033;-84
2023/12/16 01:50:36;;;;;;;6.57;3.38;;;;;;;;;;5028583;28;20601;-84
2023/12/16 01:53:04;;;;;;;3.85;2.85;;;;;;;;;;5027954;28;20048;-84
2023/12/16 01:55:30;;;;;;;4.55;3.17;;;;;;;;;;5028314;28;20540;-83
2023/12/16 01:57:56;;;;;;;6.25;3.20;;;;;;;;;;5027520;28;20124;-84
2023/12/16 02:00:23;;;;;;;5.10;3.42;;;;;;;;;;5028500;28;20038;-86
2023/12/16 02:02:49;;;;;;;5.47;3.50;;;;;;;;;;5027876;28;20040;-84
2023/12/16 02:05:14;;;;;;;7.50;3.97;;;;;;;;;;5028153;28;20684;-85
2023/12/16 02:07:40;;;;;;;5.57;3.75;;;;;;;;;;5024782;28;20492;-86
2023/12/16 02:10:06;;;;;;;6.90;4.28;;;;;;;;;;5025550;28;20041;-85
2023/12/16 02:12:33;;;;;;;8.73;4.32;;;;;;;;;;5026679;28;20064;-84
2023/12/16 02:14:59;;;;;;;6.00;3.90;;;;;;;;;;5030198;28;20420;-84
2023/12/16 02:17:24;;;;;;;4.95;3.35;;;;;;;;;;5032827;28;20692;-86
2023/12/16 02:19:53;;;;;;;4.45;3.38;;;;;;;;;;5017256;28;20033;-85
2023/12/16 02:22:18;;;;;;;4.97;3.60;;;;;;;;;;5033768;28;20047;-84
2023/12/16 02:24:45;;;;;;;5.75;3.78;;;;;;;;;;5026891;28;20038;-85
2023/12/16 02:27:10;;;;;;;6.00;4.03;;;;;;;;;;5025253;28;20167;-85
2023/12/16 02:29:36;;;;;;;5.57;3.90;;;;;;;;;;5018304;28;20120;-84
2023/12/16 02:32:02;;;;;;;7.40;4.22;;;;;;;;;;5027864;28;20038;-83
2023/12/16 02:34:28;;;;;;;6.93;4.13;;;;;;;;;;5027797;28;20174;-84
2023/12/16 02:36:54;;;;;;;5.22;3.70;;;;;;;;;;5035501;28;20041;-84
2023/12/16 02:39:19;;;;;;;5.55;3.40;;;;;;;;;;5041333;28;20043;-84
2023/12/16 02:41:44;;;;;;;4.82;3.50;;;;;;;;;;5039418;28;20033;-84
2023/12/16 02:44:10;;;;;;;5.57;3.63;;;;;;;;;;5040238;28;20091;-84
2023/12/16 02:46:35;;;;;;;5.93;3.65;;;;;;;;;;5034258;28;20112;-84
2023/12/16 02:49:01;;;;;;;6.65;4.00;;;;;;;;;;5016490;28;20029;-85
2023/12/16 02:51:26;;;;;;;5.82;3.67;;;;;;;;;;5012019;28;20498;-84
2023/12/16 02:53:53;;;;;;;6.05;3.78;;;;;;;;;;5032189;28;20033;-84
2023/12/16 02:56:18;;;;;;;5.43;3.63;;;;;;;;;;5033694;28;20041;-85
2023/12/16 02:58:44;;;;;;;5.13;3.53;;;;;;;;;;5033896;28;20021;-84
2023/12/16 03:01:09;;;;;;;5.60;3.75;;;;;;;;;;5035712;28;20084;-85
2023/12/16 03:03:37;;;;;;;5.03;3.50;;;;;;;;;;5032833;28;20103;-86
2023/12/16 03:06:04;;;;;;;5.57;3.65;;;;;;;;;;5034592;28;20040;-85
2023/12/16 03:08:30;;;;;;;5.13;3.45;;;;;;;;;;5031390;28;20076;-85
2023/12/16 03:10:55;;;;;;;5.30;3.65;;;;;;;;;;5030679;28;20072;-82
2023/12/16 03:13:21;;;;;;;5.03;3.60;;;;;;;;;;5032091;28;20042;-84
2023/12/16 03:15:46;;;;;;;6.18;3.88;;;;;;;;;;5031501;28;20123;-84
2023/12/16 03:18:12;;;;;;;5.10;3.80;;;;;;;;;;5029307;28;20068;-84
2023/12/16 03:20:37;;;;;;;6.07;4.05;;;;;;;;;;5027998;28;20112;-85
2023/12/16 03:23:03;;;;;;;6.72;3.80;;;;;;;;;;5031353;28;20034;-85
2023/12/16 03:25:28;;;;;;;6.40;3.85;;;;;;;;;;5029615;28;20030;-84
2023/12/16 03:27:54;;;;;;;5.82;3.58;;;;;;;;;;5027228;28;20042;-85
2023/12/16 03:30:20;;;;;;;6.00;3.70;;;;;;;;;;5027921;28;20033;-85
2023/12/16 03:32:45;;;;;;;6.05;3.75;;;;;;;;;;5031972;28;20795;-84
2023/12/16 03:35:11;;;;;;;5.25;3.45;;;;;;;;;;5032293;28;20026;-84
2023/12/16 03:37:36;;;;;;;9.55;3.95;;;;;;;;;;5032041;28;20434;-84
2023/12/16 03:40:02;;;;;;;6.30;3.72;;;;;;;;;;5032428;28;20112;-86
2023/12/16 03:42:27;;;;;;;5.03;3.55;;;;;;;;;;5034996;28;20099;-84
2023/12/16 03:44:53;;;;;;;5.53;3.50;;;;;;;;;;5029243;28;20032;-84
2023/12/16 03:47:19;;;;;;;5.57;3.75;;;;;;;;;;5029411;28;20830;-85
2023/12/16 03:49:44;;;;;;;5.10;3.40;;;;;;;;;;5026892;28;20083;-85
2023/12/16 03:52:11;;;;;;;5.72;3.70;;;;;;;;;;5028118;28;20115;-84
2023/12/16 03:54:37;;;;;;;5.85;3.88;;;;;;;;;;5010136;28;20388;-83
2023/12/16 03:57:03;;;;;;;7.03;4.05;;;;;;;;;;5032804;28;20047;-84
2023/12/16 03:59:29;;;;;;;6.45;4.03;;;;;;;;;;5035022;28;20030;-85
2023/12/16 04:01:54;;;;;;;6.22;3.97;;;;;;;;;;5033467;28;20048;-85
2023/12/16 04:04:20;;;;;;;6.85;3.95;;;;;;;;;;5013043;28;20033;-84
2023/12/16 04:06:46;;;;;;;6.40;4.18;;;;;;;;;;5028723;28;20033;-84
2023/12/16 04:09:12;;;;;;;7.07;4.40;;;;;;;;;;5028905;28;20041;-84
2023/12/16 04:11:48;;;;;;;5.63;3.90;;;;;;;;;;5031492;28;20041;-84
2023/12/16 04:14:14;;;;;;;5.38;3.72;;;;;;;;;;5030626;28;20038;-84
2023/12/16 04:16:41;;;;;;;7.25;3.80;;;;;;;;;;5031258;28;20512;-87
2023/12/16 04:19:06;;;;;;;4.82;3.22;;;;;;;;;;5028879;28;20095;-83
2023/12/16 04:21:35;;;;;;;5.43;3.70;;;;;;;;;;5035765;28;20036;-84
2023/12/16 04:24:00;;;;;;;5.97;3.75;;;;;;;;;;5036501;28;20396;-85
2023/12/16 04:26:26;;;;;;;5.28;3.58;;;;;;;;;;5028488;28;20095;-82
2023/12/16 04:28:51;;;;;;;5.30;3.72;;;;;;;;;;5027612;28;20034;-85
2023/12/16 04:31:17;;;;;;;6.13;4.15;;;;;;;;;;5025239;28;20427;-83
2023/12/16 04:33:43;;;;;;;35.97;14.85;;;;;;;;;;5028604;28;20030;-84
2023/12/16 04:36:14;;;;;;;7.72;4.93;;;;;;;;;;5027797;28;20675;-84
2023/12/16 04:38:40;;;;;;;5.22;3.85;;;;;;;;;;5029674;28;20045;-86
2023/12/16 04:41:05;;;;;;;6.22;4.15;;;;;;;;;;5030011;28;20124;-85
2023/12/16 04:43:31;;;;;;;6.32;4.28;;;;;;;;;;5032280;28;20116;-84
2023/12/16 04:45:56;;;;;;;7.47;4.55;;;;;;;;;;5031801;28;20033;-84
2023/12/16 04:48:22;;;;;;;7.65;4.65;;;;;;;;;;5028438;28;20038;-84
2023/12/16 04:50:47;;;;;;;6.63;4.50;;;;;;;;;;5030224;28;20415;-84
2023/12/16 04:53:13;;;;;;;9.27;6.10;;;;;;;;;;5030359;28;20115;-86
2023/12/16 04:55:38;;;;;;;12.18;7.55;;;;;;;;;;5026468;28;20049;-86
2023/12/16 04:58:04;;;;;;;8.00;4.90;;;;;;;;;;5028398;28;20033;-86
2023/12/16 05:00:29;;;;;;;6.70;4.43;;;;;;;;;;5026769;28;20029;-86
2023/12/16 05:02:55;;;;;;;6.80;4.60;;;;;;;;;;5032400;28;20029;-85
2023/12/16 05:05:20;;;;;;;6.72;4.40;;;;;;;;;;5036061;28;20406;-86
2023/12/16 05:07:46;;;;;;;6.55;4.50;;;;;;;;;;5030441;28;20036;-85
2023/12/16 05:10:11;;;;;;;5.68;4.15;;;;;;;;;;5030568;28;20506;-85
2023/12/16 05:12:41;;;;;;;6.20;4.13;;;;;;;;;;5031411;28;20553;-84
2023/12/16 05:15:07;;;;;;;7.55;4.85;;;;;;;;;;5030811;28;20120;-84
2023/12/16 05:17:32;;;;;;;8.25;4.93;;;;;;;;;;5037106;28;20053;-84
2023/12/16 05:19:58;;;;;;;6.35;4.13;;;;;;;;;;5028265;28;20059;-84
2023/12/16 05:22:23;;;;;;;8.48;4.82;;;;;;;;;;5029273;28;20037;-84
2023/12/16 05:24:49;;;;;;;6.93;4.80;;;;;;;;;;5029015;28;20110;-85
2023/12/16 05:27:14;;;;;;;7.43;4.82;;;;;;;;;;5025015;28;20045;-84
2023/12/16 05:29:40;;;;;;;7.93;4.70;;;;;;;;;;5023466;28;20411;-83
2023/12/16 05:32:06;;;;;;;6.47;4.35;;;;;;;;;;5025490;28;20029;-84
2023/12/16 05:34:31;;;;;;;6.88;4.70;;;;;;;;;;5026623;28;20036;-86
2023/12/16 05:36:57;;;;;;;7.15;4.65;;;;;;;;;;5023514;28;20037;-84
2023/12/16 05:39:22;;;;;;;7.03;3.95;;;;;;;;;;5024789;28;20121;-84
2023/12/16 05:41:49;;;;;;;5.72;4.07;;;;;;;;;;5028733;28;20033;-85
2023/12/16 05:44:15;;;;;;;6.05;4.15;;;;;;;;;;5032362;28;20112;-84
2023/12/16 05:46:40;;;;;;;5.95;4.20;;;;;;;;;;5030050;28;20106;-84
2023/12/16 05:49:06;;;;;;;6.53;4.53;;;;;;;;;;5025446;28;20038;-85
2023/12/16 05:51:42;;;;;;;7.00;4.70;;;;;;;;;;5008597;28;20025;-86
2023/12/16 05:54:08;;;;;;;15.73;9.25;;;;;;;;;;5028315;28;20124;-84
2023/12/16 05:56:34;;;;;;;19.30;9.73;;;;;;;;;;5029084;28;20118;-85
2023/12/16 05:59:00;;;;;;;24.20;12.13;;;;;;;;;;5030759;28;20052;-85
2023/12/16 06:01:25;;;;;;;13.55;8.20;;;;;;;;;;5029066;28;20070;-83
2023/12/16 06:03:51;;;;;;;8.77;5.90;;;;;;;;;;5033415;28;20373;-85
2023/12/16 06:06:17;;;;;;;9.20;5.72;;;;;;;;;;5032972;28;20103;-85
2023/12/16 06:08:42;;;;;;;9.40;5.10;;;;;;;;;;5034696;28;20054;-86
2023/12/16 06:11:14;;;;;;;7.43;5.10;;;;;;;;;;5029642;28;20041;-86
2023/12/16 06:13:41;;;;;;;8.90;4.70;;;;;;;;;;5034940;28;20033;-86
2023/12/16 06:16:07;;;;;;;6.82;4.18;;;;;;;;;;5035815;28;20041;-86
2023/12/16 06:18:36;;;;;;;7.65;4.15;;;;;;;;;;5036684;28;20729;-87
2023/12/16 06:21:01;;;;;;;6.40;4.13;;;;;;;;;;5030536;28;20037;-85
2023/12/16 06:23:29;;;;;;;7.20;4.70;;;;;;;;;;5033752;28;20052;-86
2023/12/16 06:25:55;;;;;;;6.07;4.15;;;;;;;;;;5034733;28;20037;-84
2023/12/16 06:28:20;;;;;;;6.75;4.60;;;;;;;;;;5032939;28;20081;-85
2023/12/16 06:30:46;;;;;;;9.82;5.95;;;;;;;;;;5031680;28;20441;-85
2023/12/16 06:33:12;;;;;;;9.48;6.47;;;;;;;;;;5029994;28;20450;-85
2023/12/16 06:35:37;;;;;;;13.27;9.25;;;;;;;;;;5035255;28;20068;-84
2023/12/16 06:38:03;;;;;;;14.10;8.18;;;;;;;;;;5031157;28;20069;-85
2023/12/16 06:40:28;;;;;;;13.35;9.10;;;;;;;;;;5031892;28;20068;-85
2023/12/16 06:42:54;;;;;;;14.52;8.98;;;;;;;;;;5035127;28;20072;-85
2023/12/16 06:45:20;;;;;;;13.00;8.77;;;;;;;;;;5036397;28;20032;-85
2023/12/16 06:47:45;;;;;;;11.25;7.00;;;;;;;;;;5035107;28;20630;-86
2023/12/16 06:50:11;;;;;;;11.02;6.97;;;;;;;;;;5032687;28;20124;-86
2023/12/16 06:52:36;;;;;;;11.00;6.50;;;;;;;;;;5034314;28;20048;-86
2023/12/16 06:55:02;;;;;;;8.90;5.80;;;;;;;;;;5032356;28;20045;-85
2023/12/16 06:57:28;;;;;;;9.68;5.93;;;;;;;;;;5034578;28;20038;-85
2023/12/16 06:59:53;;;;;;;8.98;6.47;;;;;;;;;;5032592;28;20436;-85
2023/12/16 07:02:19;;;;;;;10.95;6.18;;;;;;;;;;5031481;28;20044;-85
2023/12/16 07:04:45;;;;;;;11.27;6.43;;;;;;;;;;5033731;28;20491;-85
2023/12/16 07:07:10;;;;;;;8.30;5.95;;;;;;;;;;5038351;28;20068;-85
2023/12/16 07:09:36;;;;;;;9.90;6.40;;;;;;;;;;5014121;28;20419;-84
2023/12/16 07:12:02;;;;;;;9.82;6.60;;;;;;;;;;5033947;28;20041;-84
2023/12/16 07:14:28;;;;;;;11.23;6.30;;;;;;;;;;5032821;28;20037;-84
2023/12/16 07:16:55;;;;;;;10.90;7.13;;;;;;;;;;5029543;28;20037;-85
2023/12/16 07:19:21;;;;;;;10.38;6.55;;;;;;;;;;5030588;28;20038;-84
2023/12/16 07:21:46;;;;;;;11.65;6.85;;;;;;;;;;5028281;28;20036;-85
2023/12/16 07:24:12;;;;;;;10.15;6.72;;;;;;;;;;5029896;28;20037;-85
2023/12/16 07:26:37;;;;;;;10.30;6.47;;;;;;;;;;5029892;28;20046;-85
2023/12/16 07:29:03;;;;;;;11.23;6.60;;;;;;;;;;5031325;28;20099;-83
2023/12/16 07:31:29;;;;;;;11.55;7.10;;;;;;;;;;5029829;28;20037;-85
2023/12/16 07:33:55;;;;;;;10.75;7.22;;;;;;;;;;5028234;28;20044;-84
2023/12/16 07:36:21;;;;;;;11.88;7.30;;;;;;;;;;5027223;28;20519;-85
2023/12/16 07:38:47;;;;;;;12.45;8.02;;;;;;;;;;5030931;28;20112;-86
2023/12/16 07:41:24;;;;;;;11.85;7.93;;;;;;;;;;5025572;28;20028;-83
2023/12/16 07:43:50;;;;;;;11.10;7.40;;;;;;;;;;5027512;28;20037;-85
2023/12/16 07:46:16;;;;;;;11.25;7.25;;;;;;;;;;5037362;28;20554;-89
2023/12/16 07:48:45;;;;;;;10.38;6.85;;;;;;;;;;5040528;28;20115;-85
2023/12/16 07:51:18;;;;;;;12.20;8.27;;;;;;;;;;5033598;28;20033;-84
2023/12/16 07:53:46;;;;;;;14.10;8.25;;;;;;;;;;5029165;28;20649;-85
2023/12/16 07:56:16;;;;;;;11.43;7.50;;;;;;;;;;5031626;28;20052;-85
2023/12/16 07:58:42;;;;;;;12.75;8.18;;;;;;;;;;5031886;28;20045;-86
2023/12/16 08:01:13;;;;;;;10.40;6.93;;;;;;;;;;5034339;28;20664;-85
2023/12/16 08:03:39;;;;;;;12.88;7.78;;;;;;;;;;5033737;28;20042;-86
2023/12/16 08:06:05;;;;;;;12.07;7.95;;;;;;;;;;5033686;28;20037;-85
2023/12/16 08:08:30;;;;;;;14.18;7.93;;;;;;;;;;5029480;28;20048;-87
2023/12/16 08:10:56;;;;;;;11.88;7.68;;;;;;;;;;5031477;28;20040;-84
2023/12/16 08:13:21;;;;;;;11.55;6.95;;;;;;;;;;5033671;28;20038;-85
2023/12/16 08:15:47;;;;;;;11.32;7.57;;;;;;;;;;5032644;28;20041;-87
2023/12/16 08:18:13;;;;;;;11.35;7.03;;;;;;;;;;5037147;28;20041;-87
2023/12/16 08:20:38;;;;;;;12.60;7.40;;;;;;;;;;5030089;28;20033;-86
2023/12/16 08:23:08;;;;;;;14.35;7.72;;;;;;;;;;5031166;28;20106;-85
2023/12/16 08:25:35;;;;;;;11.85;7.30;;;;;;;;;;5030425;28;20086;-85
2023/12/16 08:28:01;;;;;;;11.00;7.30;;;;;;;;;;5029188;28;20472;-85
2023/12/16 08:30:26;;;;;;;11.60;7.35;;;;;;;;;;5026279;28;20110;-86
2023/12/16 08:32:52;;;;;;;12.07;7.80;;;;;;;;;;5028084;28;20026;-86
2023/12/16 08:35:17;;;;;;;11.68;7.82;;;;;;;;;;5028174;28;20049;-85
2023/12/16 08:37:43;;;;;;;11.65;7.78;;;;;;;;;;5008331;28;20037;-86
2023/12/16 08:40:09;;;;;;;11.80;7.15;;;;;;;;;;5025830;28;20061;-85
2023/12/16 08:42:35;;;;;;;11.70;7.32;;;;;;;;;;5028800;28;20501;-86
2023/12/16 08:45:01;;;;;;;12.43;6.80;;;;;;;;;;5028621;28;20510;-87
2023/12/16 08:47:27;;;;;;;11.95;7.88;;;;;;;;;;5030617;28;20037;-87
2023/12/16 08:49:52;;;;;;;12.95;8.20;;;;;;;;;;5031896;28;20064;-86
2023/12/16 08:52:18;;;;;;;12.55;7.75;;;;;;;;;;5038669;28;20040;-86
2023/12/16 08:54:44;;;;;;;9.02;5.55;;;;;;;;;;5029897;28;20037;-87
2023/12/16 08:57:10;;;;;;;12.85;7.80;;;;;;;;;;5030278;28;20064;-86
2023/12/16 08:59:35;;;;;;;13.82;8.95;;;;;;;;;;5030080;28;20116;-86
2023/12/16 09:02:02;;;;;;;14.07;8.60;;;;;;;;;;5029845;28;20068;-86
2023/12/16 09:04:27;;;;;;;11.32;7.45;;;;;;;;;;5031553;28;20039;-84
2023/12/16 09:06:54;;;;;;;13.48;8.88;;;;;;;;;;5033342;28;20045;-87
2023/12/16 09:09:20;;;;;;;14.70;8.80;;;;;;;;;;5036856;28;20403;-86
2023/12/16 09:11:45;;;;;;;18.13;11.45;;;;;;;;;;5035455;28;20045;-88
2023/12/16 09:14:11;;;;;;;13.77;8.27;;;;;;;;;;5032371;28;20056;-87
2023/12/16 09:16:37;;;;;;;13.13;7.95;;;;;;;;;;5032687;28;20040;-88
2023/12/16 09:19:06;;;;;;;13.18;8.30;;;;;;;;;;5031426;28;20029;-88
2023/12/16 09:21:33;;;;;;;14.55;8.43;;;;;;;;;;5035137;28;20501;-87
2023/12/16 09:23:58;;;;;;;15.00;8.40;;;;;;;;;;5030271;28;20128;-88
2023/12/16 09:26:24;;;;;;;13.02;8.13;;;;;;;;;;5030858;28;20663;-86
2023/12/16 09:28:50;;;;;;;14.10;8.57;;;;;;;;;;5033317;28;20037;-87
2023/12/16 09:31:18;;;;;;;12.45;8.13;;;;;;;;;;5029208;28;20042;-86
2023/12/16 09:33:43;;;;;;;14.68;8.95;;;;;;;;;;5028126;28;20030;-87
2023/12/16 09:36:13;;;;;;;14.48;8.95;;;;;;;;;;5017662;28;20060;-87
2023/12/16 09:38:39;;;;;;;13.15;8.55;;;;;;;;;;5015139;28;20048;-87
2023/12/16 09:41:21;;;;;;;13.00;7.97;;;;;;;;;;5009219;28;20213;-87
2023/12/16 09:43:51;;;;;;;11.48;7.55;;;;;;;;;;5011245;28;20540;-87
2023/12/16 09:46:18;;;;;;;13.45;7.68;;;;;;;;;;5012955;28;20033;-87
2023/12/16 09:48:44;;;;;;;10.75;6.70;;;;;;;;;;4990406;28;20121;-87
2023/12/16 09:51:10;;;;;;;10.57;7.00;;;;;;;;;;4998107;28;20126;-87
2023/12/16 09:53:35;;;;;;;13.68;8.15;;;;;;;;;;5024530;28;20076;-87
2023/12/16 09:56:01;;;;;;;13.77;8.07;;;;;;;;;;5032557;28;20083;-87
2023/12/16 09:58:29;;;;;;;11.55;7.53;;;;;;;;;;5026927;28;20034;-88
2023/12/16 10:00:55;;;;;;;12.48;8.07;;;;;;;;;;5024333;28;20037;-87
2023/12/16 10:03:21;;;;;;;10.57;7.13;;;;;;;;;;4992743;28;20033;-87
2023/12/16 10:05:49;;;;;;;8.88;6.35;;;;;;;;;;5030794;28;20513;-89
2023/12/16 10:08:14;;;;;;;10.93;7.20;;;;;;;;;;5008071;28;20032;-86
2023/12/16 10:10:40;;;;;;;12.43;7.05;;;;;;;;;;5033978;28;20052;-86
2023/12/16 10:13:05;;;;;;;11.85;7.70;;;;;;;;;;5020218;28;20034;-86
2023/12/16 10:15:33;;;;;;;10.57;6.75;;;;;;;;;;5031404;28;20033;-86
2023/12/16 10:18:02;;;;;;;9.00;6.70;;;;;;;;;;5020848;28;20037;-86
2023/12/16 10:20:29;;;;;;;9.75;6.65;;;;;;;;;;4999247;28;20464;-86
2023/12/16 10:22:55;;;;;;;9.30;6.60;;;;;;;;;;5013784;28;20022;-88
2023/12/16 10:25:21;;;;;;;10.02;6.30;;;;;;;;;;5015811;28;20517;-87
2023/12/16 10:27:48;;;;;;;7.57;5.32;;;;;;;;;;5010913;28;20076;-88
2023/12/16 10:30:14;;;;;;;8.27;5.90;;;;;;;;;;5034195;28;20045;-86
2023/12/16 10:32:40;;;;;;;8.05;5.70;;;;;;;;;;5022310;28;20034;-88
2023/12/16 10:35:07;;;;;;;8.35;5.50;;;;;;;;;;5013748;28;20053;-88
2023/12/16 10:37:33;;;;;;;10.30;7.32;;;;;;;;;;5027681;28;20041;-87
2023/12/16 10:39:59;;;;;;;8.13;5.75;;;;;;;;;;5007183;28;20122;-86
2023/12/16 10:42:25;;;;;;;11.18;6.35;;;;;;;;;;5034863;28;20053;-88
2023/12/16 10:44:53;;;;;;;9.07;6.07;;;;;;;;;;5038774;28;20033;-89
2023/12/16 10:47:27;;;;;;;10.55;6.25;;;;;;;;;;5017711;28;20025;-86
2023/12/16 10:49:55;;;;;;;9.10;5.82;;;;;;;;;;5012734;28;20087;-84
2023/12/16 10:52:22;;;;;;;9.25;5.97;;;;;;;;;;5026118;28;20037;-84
2023/12/16 10:54:59;;;;;;;8.98;6.15;;;;;;;;;;5023931;28;20083;-85
2023/12/16 10:58:02;;;;;;;8.57;6.38;;;;;;;;;;5015591;28;20070;-84
2023/12/16 11:00:31;;;;;;;9.40;6.30;;;;;;;;;;5032265;28;20048;-87
2023/12/16 11:03:18;;;;;;;9.30;5.95;;;;;;;;;;5033655;28;20042;-84
2023/12/16 11:05:52;;;;;;;8.73;6.20;;;;;;;;;;5031811;28;20038;-87
2023/12/16 11:08:18;;;;;;;8.65;5.60;;;;;;;;;;5033286;28;20037;-88
2023/12/16 11:10:44;;;;;;;10.00;6.35;;;;;;;;;;5029446;28;20405;-86
2023/12/16 11:13:10;;;;;;;9.98;6.85;;;;;;;;;;5032358;28;20045;-87
2023/12/16 11:15:37;;;;;;;10.55;7.05;;;;;;;;;;5040473;28;20037;-86
2023/12/16 11:18:19;;;;;;;10.75;6.70;;;;;;;;;;5035247;28;20036;-84
2023/12/16 11:20:48;;;;;;;9.65;5.88;;;;;;;;;;5032541;28;20108;-85
2023/12/16 11:23:17;;;;;;;9.75;6.15;;;;;;;;;;5028944;28;20033;-85
2023/12/16 11:25:43;;;;;;;9.43;6.28;;;;;;;;;;5033717;28;20164;-85
2023/12/16 11:28:13;;;;;;;9.90;6.70;;;;;;;;;;5033774;28;20057;-87
2023/12/16 11:30:39;;;;;;;9.43;6.38;;;;;;;;;;5033592;28;20033;-86
2023/12/16 11:33:05;;;;;;;11.32;6.90;;;;;;;;;;5034290;28;20033;-87
2023/12/16 11:35:42;;;;;;;8.25;5.78;;;;;;;;;;5029146;28;20041;-86
2023/12/16 11:38:08;;;;;;;10.05;6.60;;;;;;;;;;5041211;28;20037;-86
2023/12/16 11:40:43;;;;;;;8.40;5.93;;;;;;;;;;5024225;28;20028;-86
2023/12/16 11:43:12;;;;;;;7.90;5.57;;;;;;;;;;5034421;28;20044;-85
2023/12/16 11:45:45;;;;;;;8.20;5.50;;;;;;;;;;5033973;28;20037;-87
2023/12/16 11:48:17;;;;;;;9.00;6.20;;;;;;;;;;5028649;28;20046;-86
2023/12/16 11:50:47;;;;;;;9.27;5.38;;;;;;;;;;5031730;28;20466;-89
2023/12/16 11:53:15;;;;;;;10.00;5.57;;;;;;;;;;5026658;28;20069;-88
2023/12/16 11:55:41;;;;;;;8.13;5.32;;;;;;;;;;5028937;28;20453;-90
2023/12/16 11:58:07;;;;;;;11.80;6.63;;;;;;;;;;5016756;28;20033;-88
2023/12/16 12:00:33;;;;;;;11.32;6.95;;;;;;;;;;5029323;28;20037;-89
2023/12/16 12:03:02;;;;;;;8.73;5.90;;;;;;;;;;5030928;28;20086;-89
2023/12/16 12:05:28;;;;;;;8.93;6.07;;;;;;;;;;5011506;28;20030;-90
2023/12/16 12:07:54;;;;;;;9.40;6.13;;;;;;;;;;4991553;28;20048;-90
2023/12/16 12:10:19;;;;;;;7.65;5.60;;;;;;;;;;5004990;28;20030;-89
2023/12/16 12:12:45;;;;;;;8.05;5.97;;;;;;;;;;5027798;28;20204;-89
2023/12/16 12:15:11;;;;;;;7.53;5.78;;;;;;;;;;5016586;28;20034;-89
2023/12/16 12:17:37;;;;;;;9.27;5.80;;;;;;;;;;5023327;28;20029;-89
2023/12/16 12:20:04;;;;;;;11.07;5.57;;;;;;;;;;4992886;28;20123;-89
2023/12/16 12:22:33;;;;;;;7.90;4.93;;;;;;;;;;5015200;28;20124;-89
2023/12/16 12:24:59;;;;;;;8.38;5.32;;;;;;;;;;5010015;28;20036;-89
2023/12/16 12:27:27;;;;;;;7.05;5.28;;;;;;;;;;5005628;28;20033;-89
2023/12/16 12:29:57;;;;;;;7.25;4.78;;;;;;;;;;5029157;28;20041;-89
2023/12/16 12:32:24;;;;;;;7.63;5.32;;;;;;;;;;5025582;28;20124;-89
2023/12/16 12:35:04;;;;;;;7.45;5.43;;;;;;;;;;5012862;28;20041;-89
2023/12/16 12:37:47;;;;;;;9.30;6.32;;;;;;;;;;5026012;28;20041;-89
2023/12/16 12:40:13;;;;;;;7.80;5.47;;;;;;;;;;5014182;28;20058;-87
2023/12/16 12:42:54;;;;;;;7.75;5.18;;;;;;;;;;4990912;28;20057;-84
2023/12/16 12:45:37;;;;;;;9.43;6.40;;;;;;;;;;5028088;28;20038;-84
2023/12/16 12:48:15;;;;;;;12.90;6.30;;;;;;;;;;5030565;28;20041;-85
2023/12/16 12:50:46;;;;;;;8.63;5.68;;;;;;;;;;5017983;28;20049;-85
2023/12/16 12:53:19;;;;;;;9.68;6.43;;;;;;;;;;5035723;28;20045;-85
2023/12/16 12:55:45;;;;;;;8.25;5.68;;;;;;;;;;5036830;28;20056;-81
2023/12/16 12:58:12;;;;;;;7.25;5.07;;;;;;;;;;5034835;28;20038;-88
2023/12/16 13:00:44;;;;;;;7.68;5.20;;;;;;;;;;5022082;28;20021;-86
2023/12/16 13:03:10;;;;;;;7.97;5.53;;;;;;;;;;5034188;28;20101;-82
2023/12/16 13:05:36;;;;;;;7.93;5.40;;;;;;;;;;5029522;28;20060;-83
2023/12/16 13:08:05;;;;;;;9.48;5.53;;;;;;;;;;5030331;28;20731;-82
2023/12/16 13:10:32;;;;;;;8.18;5.15;;;;;;;;;;5023487;28;20052;-80
2023/12/16 13:12:57;;;;;;;9.75;5.43;;;;;;;;;;5034826;28;20044;-82
2023/12/16 13:15:23;;;;;;;7.65;5.28;;;;;;;;;;5035443;28;20415;-83
2023/12/16 13:17:50;;;;;;;7.82;5.25;;;;;;;;;;5034213;28;20034;-83
2023/12/16 13:20:15;;;;;;;10.20;6.03;;;;;;;;;;5017246;28;20040;-84
2023/12/16 13:22:44;;;;;;;9.35;5.55;;;;;;;;;;5032978;28;20090;-84
2023/12/16 13:25:13;;;;;;;8.60;5.30;;;;;;;;;;5037422;28;20038;-84
2023/12/16 13:27:42;;;;;;;10.20;5.43;;;;;;;;;;5032296;28;20080;-83
2023/12/16 13:30:09;;;;;;;6.63;4.65;;;;;;;;;;5028988;28;20102;-83
2023/12/16 13:32:38;;;;;;;7.53;5.20;;;;;;;;;;5031916;28;20041;-84
2023/12/16 13:35:04;;;;;;;7.90;5.18;;;;;;;;;;5031350;28;20037;-83
2023/12/16 13:37:30;;;;;;;8.23;5.15;;;;;;;;;;5029595;28;20103;-83
2023/12/16 13:40:03;;;;;;;7.95;4.57;;;;;;;;;;5025856;28;20030;-82
2023/12/16 13:42:29;;;;;;;7.13;5.05;;;;;;;;;;5027515;28;20071;-83
2023/12/16 13:44:55;;;;;;;7.63;4.78;;;;;;;;;;5029124;28;20030;-84
2023/12/16 13:47:20;;;;;;;7.53;5.10;;;;;;;;;;5034560;28;20033;-84
2023/12/16 13:49:46;;;;;;;8.02;5.47;;;;;;;;;;5033061;28;20033;-84
2023/12/16 13:52:11;;;;;;;8.57;5.78;;;;;;;;;;5027633;28;20503;-83
2023/12/16 13:54:38;;;;;;;8.25;5.03;;;;;;;;;;5027931;28;20565;-84
2023/12/16 13:57:04;;;;;;;8.40;6.05;;;;;;;;;;5028978;28;20064;-83
2023/12/16 13:59:32;;;;;;;7.15;5.13;;;;;;;;;;5030144;28;20112;-83
2023/12/16 14:01:58;;;;;;;8.75;5.78;;;;;;;;;;5032969;28;20106;-83
2023/12/16 14:04:24;;;;;;;8.13;5.72;;;;;;;;;;5028693;28;20096;-84
2023/12/16 14:06:49;;;;;;;9.27;5.43;;;;;;;;;;5011836;28;20057;-84
2023/12/16 14:09:16;;;;;;;7.63;5.43;;;;;;;;;;5028817;28;20072;-83
2023/12/16 14:11:42;;;;;;;9.23;5.65;;;;;;;;;;5029937;28;20042;-84
2023/12/16 14:14:07;;;;;;;7.93;5.50;;;;;;;;;;5030580;28;20122;-83
2023/12/16 14:16:33;;;;;;;7.75;5.20;;;;;;;;;;5033433;28;20041;-84
2023/12/16 14:18:58;;;;;;;11.90;6.10;;;;;;;;;;5032053;28;20086;-83
2023/12/16 14:21:24;;;;;;;11.20;6.72;;;;;;;;;;5029952;28;20037;-83
2023/12/16 14:23:50;;;;;;;8.70;5.80;;;;;;;;;;5028991;28;20091;-83
2023/12/16 14:26:16;;;;;;;8.50;5.53;;;;;;;;;;5029178;28;20043;-83
2023/12/16 14:28:42;;;;;;;7.72;5.25;;;;;;;;;;5029277;28;20034;-84
2023/12/16 14:31:07;;;;;;;9.75;5.85;;;;;;;;;;5032882;28;20494;-83
2023/12/16 14:33:33;;;;;;;8.90;5.82;;;;;;;;;;5033475;28;20052;-84
2023/12/16 14:35:58;;;;;;;9.05;5.95;;;;;;;;;;5035705;28;20479;-84